createdAt,value
2022-09-02T00:01:48.158Z,100.00
2022-09-02T00:04:22.705Z,100.00
2022-09-02T00:06:54.020Z,100.00
2022-09-02T00:09:27.667Z,100.00
2022-09-02T00:11:56.912Z,100.00
2022-09-02T00:14:32.421Z,100.00
2022-09-02T00:17:00.977Z,100.00
2022-09-02T00:19:31.205Z,100.00
2022-09-02T00:22:00.928Z,100.00
2022-09-02T00:24:28.596Z,100.00
2022-09-02T00:26:56.840Z,100.00
2022-09-02T00:29:26.939Z,100.00
2022-09-02T00:31:53.697Z,100.00
2022-09-02T00:34:20.922Z,100.00
2022-09-02T00:36:47.681Z,100.00
2022-09-02T00:39:14.635Z,100.00
2022-09-02T00:41:44.651Z,100.00
2022-09-02T00:44:17.437Z,100.00
2022-09-02T00:46:44.633Z,100.00
2022-09-02T00:49:33.579Z,100.00
2022-09-02T00:52:37.359Z,100.00
2022-09-02T00:55:29.673Z,100.00
2022-09-02T00:58:13.812Z,100.00
2022-09-02T01:00:46.482Z,100.00
2022-09-02T01:03:21.078Z,100.00
2022-09-02T01:05:53.339Z,100.00
2022-09-02T01:08:27.098Z,100.00
2022-09-02T01:10:56.169Z,100.00
2022-09-02T01:13:29.261Z,100.00
2022-09-02T01:16:17.602Z,100.00
2022-09-02T01:18:52.711Z,100.00
2022-09-02T01:21:20.853Z,100.00
2022-09-02T01:23:49.363Z,100.00
2022-09-02T01:26:18.907Z,100.00
2022-09-02T01:28:45.942Z,100.00
2022-09-02T01:31:12.934Z,100.00
2022-09-02T01:33:40.027Z,100.00
2022-09-02T01:36:08.207Z,100.00
2022-09-02T01:38:35.624Z,100.00
2022-09-02T01:41:02.467Z,100.00
2022-09-02T01:43:30.026Z,100.00
2022-09-02T01:45:59.543Z,100.00
2022-09-02T01:48:26.669Z,100.00
2022-09-02T01:51:01.761Z,100.00
2022-09-02T01:53:30.537Z,100.00
2022-09-02T01:55:57.660Z,100.00
2022-09-02T01:58:24.733Z,100.00
2022-09-02T02:00:52.655Z,100.00
2022-09-02T02:03:20.401Z,100.00
2022-09-02T02:05:47.931Z,100.00
2022-09-02T02:08:15.133Z,100.00
2022-09-02T02:10:43.685Z,100.00
2022-09-02T02:13:11.138Z,100.00
2022-09-02T02:15:43.166Z,100.00
2022-09-02T02:18:10.904Z,100.00
2022-09-02T02:20:38.760Z,100.00
2022-09-02T02:23:07.331Z,100.00
2022-09-02T02:25:34.802Z,100.00
2022-09-02T02:28:02.473Z,100.00
2022-09-02T02:30:29.635Z,100.00
2022-09-02T02:32:56.845Z,100.00
2022-09-02T02:35:23.925Z,100.00
2022-09-02T02:37:50.907Z,100.00
2022-09-02T02:40:28.543Z,100.00
2022-09-02T02:42:55.255Z,100.00
2022-09-02T02:45:24.491Z,100.00
2022-09-02T02:47:53.676Z,100.00
2022-09-02T02:50:23.602Z,100.00
2022-09-02T02:52:53.765Z,100.00
2022-09-02T02:55:23.478Z,100.00
2022-09-02T02:57:51.697Z,100.00
2022-09-02T03:00:28.639Z,100.00
2022-09-02T03:03:10.257Z,100.00
2022-09-02T03:05:42.707Z,100.00
2022-09-02T03:08:11.173Z,100.00
2022-09-02T03:10:41.988Z,100.00
2022-09-02T03:13:12.009Z,100.00
2022-09-02T03:15:40.413Z,100.00
2022-09-02T03:18:09.030Z,100.00
2022-09-02T03:20:36.215Z,100.00
2022-09-02T03:23:03.743Z,100.00
2022-09-02T03:25:36.154Z,100.00
2022-09-02T03:28:04.527Z,100.00
2022-09-02T03:30:33.697Z,100.00
2022-09-02T03:33:13.994Z,100.00
2022-09-02T03:35:44.900Z,100.00
2022-09-02T03:38:13.574Z,100.00
2022-09-02T03:40:42.169Z,100.00
2022-09-02T03:43:09.146Z,100.00
2022-09-02T03:45:36.041Z,100.00
2022-09-02T03:48:03.894Z,100.00
2022-09-02T03:50:37.755Z,100.00
2022-09-02T03:53:06.824Z,100.00
2022-09-02T03:55:37.095Z,100.00
2022-09-02T03:58:08.586Z,100.00
2022-09-02T04:00:37.108Z,100.00
2022-09-02T04:03:05.538Z,100.00
2022-09-02T04:05:32.610Z,100.00
2022-09-02T04:08:03.252Z,100.00
2022-09-02T04:10:30.131Z,100.00
2022-09-02T04:12:56.785Z,100.00
2022-09-02T04:15:23.582Z,100.00
2022-09-02T04:17:50.274Z,100.00
2022-09-02T04:20:17.615Z,100.00
2022-09-02T04:22:44.912Z,100.00
2022-09-02T04:25:13.027Z,100.00
2022-09-02T04:27:40.619Z,100.00
2022-09-02T04:30:09.869Z,100.00
2022-09-02T04:32:40.692Z,100.00
2022-09-02T04:35:08.955Z,100.00
2022-09-02T04:37:35.600Z,100.00
2022-09-02T04:40:03.193Z,100.00
2022-09-02T04:42:29.840Z,100.00
2022-09-02T04:44:57.846Z,100.00
2022-09-02T04:47:24.633Z,100.00
2022-09-02T04:49:52.618Z,100.00
2022-09-02T04:52:20.753Z,100.00
2022-09-02T04:54:51.777Z,100.00
2022-09-02T04:57:18.479Z,100.00
2022-09-02T04:59:45.425Z,100.00
2022-09-02T05:02:12.285Z,100.00
2022-09-02T05:04:39.260Z,100.00
2022-09-02T05:07:06.005Z,100.00
2022-09-02T05:09:33.533Z,100.00
2022-09-02T05:12:04.183Z,100.00
2022-09-02T05:14:32.757Z,100.00
2022-09-02T05:17:06.700Z,100.00
2022-09-02T05:19:34.230Z,100.00
2022-09-02T05:22:01.783Z,100.00
2022-09-02T05:24:29.607Z,100.00
2022-09-02T05:26:56.460Z,100.00
2022-09-02T05:29:23.874Z,100.00
2022-09-02T05:31:50.921Z,100.00
2022-09-02T05:34:19.161Z,100.00
2022-09-02T05:36:46.654Z,100.00
2022-09-02T05:39:14.000Z,100.00
2022-09-02T05:41:41.267Z,100.00
2022-09-02T05:44:08.463Z,100.00
2022-09-02T05:46:36.634Z,100.00
2022-09-02T05:49:06.282Z,100.00
2022-09-02T05:51:46.643Z,100.00
2022-09-02T05:54:24.266Z,100.00
2022-09-02T05:56:59.101Z,100.00
2022-09-02T05:59:30.029Z,100.00
2022-09-02T06:01:59.067Z,100.00
2022-09-02T06:04:26.103Z,100.00
2022-09-02T06:06:53.599Z,100.00
2022-09-02T06:09:23.829Z,100.00
2022-09-02T06:11:52.062Z,100.00
2022-09-02T06:14:25.135Z,100.00
2022-09-02T06:16:55.443Z,100.00
2022-09-02T06:19:28.873Z,100.00
2022-09-02T06:21:57.376Z,100.00
2022-09-02T06:24:24.599Z,100.00
2022-09-02T06:26:54.525Z,95.85
2022-09-02T06:29:25.552Z,91.88
2022-09-02T06:31:53.838Z,87.99
2022-09-02T06:34:25.469Z,88.05
2022-09-02T06:36:52.313Z,86.32
2022-09-02T06:39:22.660Z,80.97
2022-09-02T06:41:50.299Z,79.18
2022-09-02T06:44:21.596Z,76.66
2022-09-02T06:46:58.466Z,74.71
2022-09-02T06:49:27.891Z,72.86
2022-09-02T06:51:57.122Z,73.25
2022-09-02T06:54:24.856Z,70.75
2022-09-02T06:56:53.890Z,69.42
2022-09-02T06:59:21.379Z,69.83
2022-09-02T07:01:49.073Z,68.29
2022-09-02T07:04:36.276Z,69.23
2022-09-02T07:07:07.129Z,67.21
2022-09-02T07:09:34.358Z,69.23
2022-09-02T07:12:05.275Z,66.63
2022-09-02T07:14:40.672Z,64.98
2022-09-02T07:17:11.106Z,67.15
2022-09-02T07:19:38.546Z,65.43
2022-09-02T07:22:07.419Z,64.53
2022-09-02T07:24:38.050Z,62.77
2022-09-02T07:27:05.896Z,61.91
2022-09-02T07:29:34.831Z,63.35
2022-09-02T07:32:02.167Z,60.70
2022-09-02T07:34:35.047Z,61.19
2022-09-02T07:37:06.201Z,59.44
2022-09-02T07:39:35.507Z,59.44
2022-09-02T07:42:02.363Z,59.05
2022-09-02T07:44:29.135Z,58.14
2022-09-02T07:46:56.219Z,54.04
2022-09-02T07:49:24.405Z,54.56
2022-09-02T07:51:52.386Z,52.56
2022-09-02T07:54:24.678Z,51.49
2022-09-02T07:56:51.946Z,51.46
2022-09-02T07:59:21.189Z,50.43
2022-09-02T08:01:49.603Z,49.77
2022-09-02T08:04:19.819Z,51.16
2022-09-02T08:06:47.303Z,50.42
2022-09-02T08:09:14.378Z,50.44
2022-09-02T08:11:47.623Z,49.76
2022-09-02T08:14:24.305Z,49.87
2022-09-02T08:16:54.418Z,50.34
2022-09-02T08:19:22.726Z,50.43
2022-09-02T08:21:49.621Z,51.63
2022-09-02T08:24:16.537Z,50.12
2022-09-02T08:26:43.273Z,50.50
2022-09-02T08:29:10.025Z,50.04
2022-09-02T08:31:39.408Z,50.21
2022-09-02T08:34:06.363Z,52.54
2022-09-02T08:36:33.053Z,54.18
2022-09-02T08:39:05.766Z,50.79
2022-09-02T08:42:13.351Z,50.37
2022-09-02T08:44:41.126Z,49.34
2022-09-02T08:47:22.920Z,50.71
2022-09-02T08:49:59.791Z,48.65
2022-09-02T08:53:12.160Z,49.31
2022-09-02T08:55:55.507Z,48.49
2022-09-02T08:58:41.284Z,47.60
2022-09-02T09:01:41.960Z,43.89
2022-09-02T09:05:06.154Z,44.02
2022-09-02T09:08:21.727Z,42.99
2022-09-02T09:11:29.782Z,44.46
2022-09-02T09:14:14.888Z,42.54
2022-09-02T09:17:00.106Z,42.98
2022-09-02T09:19:54.874Z,43.44
2022-09-02T09:22:32.994Z,43.65
2022-09-02T09:25:00.639Z,42.83
2022-09-02T09:27:28.320Z,42.50
2022-09-02T09:29:55.028Z,41.40
2022-09-02T09:32:41.915Z,41.85
2022-09-02T09:35:19.635Z,41.04
2022-09-02T09:37:53.513Z,41.57
2022-09-02T09:40:24.217Z,43.63
2022-09-02T09:43:03.137Z,40.10
2022-09-02T09:45:41.677Z,41.32
2022-09-02T09:48:19.319Z,41.00
2022-09-02T09:50:55.537Z,41.26
2022-09-02T09:53:30.443Z,40.58
2022-09-02T09:55:58.208Z,40.25
2022-09-02T09:58:40.277Z,39.61
2022-09-02T10:01:36.808Z,39.68
2022-09-02T10:04:42.965Z,39.16
2022-09-02T10:07:13.657Z,39.06
2022-09-02T10:09:40.982Z,40.32
2022-09-02T10:12:12.987Z,38.98
2022-09-02T10:14:48.165Z,38.70
2022-09-02T10:17:40.180Z,40.62
2022-09-02T10:20:26.068Z,38.72
2022-09-02T10:23:45.479Z,37.66
2022-09-02T10:26:48.187Z,39.04
2022-09-02T10:30:06.224Z,38.13
2022-09-02T10:33:13.056Z,39.06
2022-09-02T10:35:52.128Z,40.20
2022-09-02T10:38:37.310Z,40.79
2022-09-02T10:41:36.677Z,40.07
2022-09-02T10:44:41.275Z,38.50
2022-09-02T10:47:38.714Z,39.14
2022-09-02T10:50:23.937Z,38.29
2022-09-02T10:53:45.900Z,37.51
2022-09-02T10:56:26.660Z,36.42
2022-09-02T10:59:26.411Z,36.85
2022-09-02T11:02:20.626Z,35.46
2022-09-02T11:05:02.427Z,37.66
2022-09-02T11:08:05.011Z,35.13
2022-09-02T11:10:56.778Z,36.82
2022-09-02T11:13:39.343Z,38.46
2022-09-02T11:16:27.843Z,38.34
2022-09-02T11:19:22.788Z,36.66
2022-09-02T11:22:28.202Z,35.16
2022-09-02T11:25:17.485Z,36.46
2022-09-02T11:28:06.777Z,36.42
2022-09-02T11:31:03.985Z,35.56
2022-09-02T11:34:07.583Z,37.34
2022-09-02T11:36:40.750Z,36.23
2022-09-02T11:39:30.417Z,37.45
2022-09-02T11:43:09.332Z,37.04
2022-09-02T11:46:35.741Z,39.76
2022-09-02T11:49:59.546Z,39.52
2022-09-02T11:52:52.350Z,39.86
2022-09-02T11:55:39.316Z,39.42
2022-09-02T11:58:06.073Z,39.69
2022-09-02T12:00:55.928Z,37.59
2022-09-02T12:03:51.879Z,38.14
2022-09-02T12:06:21.796Z,38.09
2022-09-02T12:08:50.142Z,38.15
2022-09-02T12:11:47.092Z,38.78
2022-09-02T12:14:27.016Z,40.55
2022-09-02T12:17:09.581Z,40.16
2022-09-02T12:19:39.914Z,40.45
2022-09-02T12:22:15.826Z,39.05
2022-09-02T12:24:58.752Z,40.33
2022-09-02T12:27:38.344Z,41.45
2022-09-02T12:30:12.726Z,40.33
2022-09-02T12:32:51.510Z,40.88
2022-09-02T12:35:40.230Z,40.00
2022-09-02T12:38:09.783Z,41.63
2022-09-02T12:40:54.663Z,41.21
2022-09-02T12:43:53.015Z,41.54
2022-09-02T12:46:44.947Z,41.18
2022-09-02T12:49:50.273Z,40.32
2022-09-02T12:52:39.832Z,39.46
2022-09-02T12:55:26.758Z,38.24
2022-09-02T12:58:14.636Z,38.75
2022-09-02T13:01:24.605Z,36.88
2022-09-02T13:04:33.063Z,37.56
2022-09-02T13:07:36.268Z,37.79
2022-09-02T13:10:50.493Z,37.38
2022-09-02T13:13:58.928Z,36.89
2022-09-02T13:17:19.038Z,38.98
2022-09-02T13:20:44.161Z,39.83
2022-09-02T13:24:00.498Z,38.76
2022-09-02T13:26:58.811Z,40.09
2022-09-02T13:30:10.520Z,41.51
2022-09-02T13:32:39.087Z,42.50
2022-09-02T13:35:23.819Z,40.24
2022-09-02T13:38:00.706Z,39.37
2022-09-02T13:40:37.850Z,40.91
2022-09-02T13:43:27.248Z,40.79
2022-09-02T13:46:01.995Z,40.46
2022-09-02T13:48:34.148Z,38.95
2022-09-02T13:51:14.628Z,38.56
2022-09-02T13:54:20.772Z,39.06
2022-09-02T13:56:36.114Z,39.95
2022-09-02T13:59:02.826Z,38.84
2022-09-02T14:01:41.894Z,39.76
2022-09-02T14:04:16.857Z,39.96
2022-09-02T14:06:48.668Z,39.90
2022-09-02T14:09:26.577Z,39.20
2022-09-02T14:11:56.059Z,40.96
2022-09-02T14:14:25.439Z,42.92
2022-09-02T14:16:52.828Z,41.53
2022-09-02T14:19:22.646Z,43.31
2022-09-02T14:21:57.563Z,41.96
2022-09-02T14:24:37.486Z,42.08
2022-09-02T14:27:18.984Z,42.57
2022-09-02T14:29:54.541Z,42.74
2022-09-02T14:32:28.492Z,43.46
2022-09-02T14:35:27.929Z,44.02
2022-09-02T14:37:59.441Z,45.89
2022-09-02T14:40:38.221Z,47.01
2022-09-02T14:43:13.370Z,46.13
2022-09-02T14:45:49.682Z,46.41
2022-09-02T14:48:26.634Z,45.96
2022-09-02T14:51:08.099Z,47.61
2022-09-02T14:53:39.439Z,47.06
2022-09-02T14:56:07.052Z,46.27
2022-09-02T14:58:33.754Z,45.88
2022-09-02T15:01:02.347Z,46.71
2022-09-02T15:03:36.586Z,46.36
2022-09-02T15:06:03.592Z,45.91
2022-09-02T15:08:30.219Z,46.25
2022-09-02T15:11:01.083Z,43.20
2022-09-02T15:13:34.240Z,45.14
2022-09-02T15:16:02.893Z,45.17
2022-09-02T15:18:30.297Z,47.02
2022-09-02T15:20:57.606Z,45.39
2022-09-02T15:23:24.956Z,45.37
2022-09-02T15:25:54.157Z,47.09
2022-09-02T15:28:21.223Z,46.44
2022-09-02T15:30:48.209Z,48.12
2022-09-02T15:33:17.466Z,47.47
2022-09-02T15:35:46.779Z,48.58
2022-09-02T15:38:13.475Z,47.53
2022-09-02T15:40:40.108Z,49.06
2022-09-02T15:43:06.773Z,49.85
2022-09-02T15:45:33.586Z,50.90
2022-09-02T15:48:00.390Z,52.07
2022-09-02T15:50:32.291Z,52.28
2022-09-02T15:53:01.227Z,53.54
2022-09-02T15:55:31.291Z,54.56
2022-09-02T15:57:58.053Z,53.44
2022-09-02T16:00:27.689Z,52.72
2022-09-02T16:02:57.046Z,52.97
2022-09-02T16:05:24.324Z,54.31
2022-09-02T16:07:55.152Z,53.89
2022-09-02T16:10:22.358Z,54.50
2022-09-02T16:12:49.151Z,55.13
2022-09-02T16:15:16.021Z,57.43
2022-09-02T16:17:42.681Z,57.45
2022-09-02T16:20:12.503Z,57.18
2022-09-02T16:22:39.160Z,57.72
2022-09-02T16:25:06.927Z,59.58
2022-09-02T16:27:51.945Z,58.98
2022-09-02T16:30:19.990Z,58.37
2022-09-02T16:32:47.697Z,59.90
2022-09-02T16:35:14.396Z,60.41
2022-09-02T16:37:41.868Z,61.08
2022-09-02T16:40:10.265Z,61.13
2022-09-02T16:42:38.424Z,59.02
2022-09-02T16:45:06.565Z,59.62
2022-09-02T16:47:33.733Z,57.86
2022-09-02T16:50:00.728Z,60.27
2022-09-02T16:52:27.355Z,62.12
2022-09-02T16:54:54.035Z,64.51
2022-09-02T16:57:20.703Z,64.93
2022-09-02T16:59:47.377Z,65.25
2022-09-02T17:02:14.121Z,66.52
2022-09-02T17:04:41.005Z,67.17
2022-09-02T17:07:07.984Z,67.67
2022-09-02T17:09:34.684Z,69.82
2022-09-02T17:12:01.411Z,70.69
2022-09-02T17:14:28.060Z,72.75
2022-09-02T17:16:54.888Z,73.89
2022-09-02T17:19:22.379Z,73.12
2022-09-02T17:21:54.516Z,73.27
2022-09-02T17:24:31.558Z,73.39
2022-09-02T17:27:00.313Z,74.64
2022-09-02T17:29:48.964Z,75.21
2022-09-02T17:32:17.496Z,77.25
2022-09-02T17:34:44.558Z,77.23
2022-09-02T17:37:11.475Z,78.53
2022-09-02T17:39:38.571Z,79.59
2022-09-02T17:42:06.991Z,79.87
2022-09-02T17:44:39.338Z,80.30
2022-09-02T17:47:09.894Z,80.93
2022-09-02T17:49:41.185Z,81.50
2022-09-02T17:52:09.243Z,82.36
2022-09-02T17:54:39.221Z,82.70
2022-09-02T17:57:23.445Z,83.22
2022-09-02T18:00:16.056Z,84.09
2022-09-02T18:03:13.253Z,85.14
2022-09-02T18:06:31.449Z,85.87
2022-09-02T18:09:03.549Z,86.23
2022-09-02T18:11:31.384Z,87.22
2022-09-02T18:14:24.037Z,87.34
2022-09-02T18:17:14.329Z,88.21
2022-09-02T18:20:47.137Z,88.47
2022-09-02T18:23:56.849Z,88.83
2022-09-02T18:26:57.275Z,89.33
2022-09-02T18:29:55.296Z,89.85
2022-09-02T18:32:54.851Z,90.41
2022-09-02T18:36:00.006Z,90.05
2022-09-02T18:39:17.777Z,89.81
2022-09-02T18:42:37.929Z,90.65
2022-09-02T18:45:31.433Z,90.31
2022-09-02T18:48:23.562Z,90.74
2022-09-02T18:51:11.521Z,90.03
2022-09-02T18:53:50.781Z,90.87
2022-09-02T18:56:26.441Z,90.52
2022-09-02T18:59:12.491Z,90.32
2022-09-02T19:01:54.666Z,90.08
2022-09-02T19:04:29.651Z,90.30
2022-09-02T19:07:16.882Z,90.05
2022-09-02T19:09:44.182Z,90.38
2022-09-02T19:12:11.044Z,89.73
2022-09-02T19:14:40.963Z,89.79
2022-09-02T19:17:09.338Z,90.17
2022-09-02T19:19:36.117Z,90.08
2022-09-02T19:22:10.671Z,90.11
2022-09-02T19:24:49.418Z,90.29
2022-09-02T19:27:23.897Z,90.65
2022-09-02T19:30:02.808Z,90.99
2022-09-02T19:32:36.722Z,91.48
2022-09-02T19:35:16.627Z,92.10
2022-09-02T19:37:51.623Z,93.22
2022-09-02T19:40:28.416Z,93.56
2022-09-02T19:42:55.487Z,94.90
2022-09-02T19:45:23.560Z,94.67
2022-09-02T19:48:08.404Z,94.99
2022-09-02T19:50:42.017Z,95.82
2022-09-02T19:53:17.996Z,96.03
2022-09-02T19:55:44.873Z,96.20
2022-09-02T19:58:11.652Z,96.20
2022-09-02T20:00:42.604Z,96.63
2022-09-02T20:03:11.904Z,96.63
2022-09-02T20:05:40.887Z,96.09
2022-09-02T20:08:09.166Z,96.33
2022-09-02T20:10:40.019Z,96.39
2022-09-02T20:13:09.314Z,96.83
2022-09-02T20:15:39.625Z,96.79
2022-09-02T20:18:18.207Z,96.72
2022-09-02T20:20:50.404Z,97.62
2022-09-02T20:23:20.346Z,96.47
2022-09-02T20:26:18.408Z,96.96
2022-09-02T20:29:08.208Z,96.48
2022-09-02T20:32:04.245Z,96.17
2022-09-02T20:35:02.516Z,96.32
2022-09-02T20:37:38.795Z,96.04
2022-09-02T20:40:23.609Z,96.07
2022-09-02T20:42:53.084Z,95.89
2022-09-02T20:46:07.298Z,96.69
2022-09-02T20:48:48.892Z,96.56
2022-09-02T20:51:39.943Z,97.23
2022-09-02T20:54:21.199Z,96.42
2022-09-02T20:57:14.083Z,96.47
2022-09-02T21:00:16.583Z,96.33
2022-09-02T21:03:25.809Z,95.90
2022-09-02T21:06:01.081Z,96.40
2022-09-02T21:08:48.593Z,96.62
2022-09-02T21:11:16.249Z,96.59
2022-09-02T21:14:10.448Z,95.80
2022-09-02T21:16:49.522Z,95.70
2022-09-02T21:19:45.398Z,96.63
2022-09-02T21:22:40.064Z,96.10
2022-09-02T21:25:23.625Z,97.34
2022-09-02T21:28:20.268Z,97.25
2022-09-02T21:31:02.657Z,97.21
2022-09-02T21:33:35.082Z,98.16
2022-09-02T21:36:05.326Z,98.25
2022-09-02T21:38:44.997Z,98.62
2022-09-02T21:41:47.584Z,98.01
2022-09-02T21:44:35.395Z,98.55
2022-09-02T21:47:31.413Z,99.38
2022-09-02T21:50:22.150Z,100.00
2022-09-02T21:53:17.598Z,99.60
2022-09-02T21:56:15.232Z,100.00
2022-09-02T21:59:51.623Z,100.00
2022-09-02T22:03:13.752Z,100.00
2022-09-02T22:06:08.810Z,99.22
2022-09-02T22:09:17.011Z,98.32
2022-09-02T22:12:01.926Z,98.55
2022-09-02T22:15:14.340Z,98.82
2022-09-02T22:17:55.527Z,98.52
2022-09-02T22:20:35.199Z,98.06
2022-09-02T22:23:25.541Z,97.59
2022-09-02T22:26:03.850Z,97.19
2022-09-02T22:28:47.199Z,96.85
2022-09-02T22:31:26.111Z,96.74
2022-09-02T22:33:58.581Z,96.51
2022-09-02T22:37:02.658Z,96.46
2022-09-02T22:39:52.857Z,97.45
2022-09-02T22:42:35.895Z,97.04
2022-09-02T22:45:54.604Z,96.62
2022-09-02T22:48:54.201Z,96.04
2022-09-02T22:51:55.287Z,97.14
2022-09-02T22:54:21.946Z,97.06
2022-09-02T22:57:21.455Z,98.32
2022-09-02T23:00:10.528Z,97.93
2022-09-02T23:03:34.967Z,98.70
2022-09-02T23:06:29.560Z,99.68
2022-09-02T23:09:08.775Z,99.29
2022-09-02T23:12:28.672Z,99.88
2022-09-02T23:15:33.280Z,100.00
2022-09-02T23:18:43.310Z,100.00
2022-09-02T23:21:40.736Z,100.00
2022-09-02T23:25:03.509Z,100.00
2022-09-02T23:27:51.639Z,100.00
2022-09-02T23:30:21.597Z,100.00
2022-09-02T23:33:38.073Z,100.00
2022-09-02T23:36:23.036Z,100.00
2022-09-02T23:39:47.103Z,100.00
2022-09-02T23:42:13.997Z,100.00
2022-09-02T23:44:41.746Z,100.00
2022-09-02T23:48:06.521Z,100.00
2022-09-02T23:51:13.115Z,100.00
2022-09-02T23:54:01.743Z,100.00
2022-09-02T23:57:00.974Z,100.00
